sensor_id;sensor_type;location;lat;lon;timestamp;P1;durP1;ratioP1;P2;durP2;ratioP2
23250;SDS011;11794;49.730;10.088;2022-08-01T00:02:26;4.53;;;1.58;;
23250;SDS011;11794;49.730;10.088;2022-08-01T00:04:53;5.68;;;1.63;;
23250;SDS011;11794;49.730;10.088;2022-08-01T00:07:19;4.13;;;1.50;;
23250;SDS011;11794;49.730;10.088;2022-08-01T00:09:45;7.00;;;1.60;;
23250;SDS011;11794;49.730;10.088;2022-08-01T00:12:10;5.13;;;1.60;;
23250;SDS011;11794;49.730;10.088;2022-08-01T00:14:36;5.95;;;1.42;;
23250;SDS011;11794;49.730;10.088;2022-08-01T00:17:02;4.72;;;1.50;;
23250;SDS011;11794;49.730;10.088;2022-08-01T00:19:27;5.17;;;1.50;;
23250;SDS011;11794;49.730;10.088;2022-08-01T00:21:53;4.87;;;1.60;;
23250;SDS011;11794;49.730;10.088;2022-08-01T00:24:18;4.72;;;1.60;;
23250;SDS011;11794;49.730;10.088;2022-08-01T00:26:44;4.67;;;1.50;;
23250;SDS011;11794;49.730;10.088;2022-08-01T00:29:09;4.53;;;1.33;;
23250;SDS011;11794;49.730;10.088;2022-08-01T00:31:35;4.93;;;1.53;;
23250;SDS011;11794;49.730;10.088;2022-08-01T00:34:00;4.23;;;1.40;;
23250;SDS011;11794;49.730;10.088;2022-08-01T00:36:26;4.38;;;1.45;;
23250;SDS011;11794;49.730;10.088;2022-08-01T00:38:51;4.20;;;1.37;;
23250;SDS011;11794;49.730;10.088;2022-08-01T00:41:17;5.03;;;1.43;;
23250;SDS011;11794;49.730;10.088;2022-08-01T00:43:42;3.72;;;1.27;;
23250;SDS011;11794;49.730;10.088;2022-08-01T00:46:08;4.17;;;1.30;;
23250;SDS011;11794;49.730;10.088;2022-08-01T00:48:33;4.60;;;1.50;;
23250;SDS011;11794;49.730;10.088;2022-08-01T00:50:59;6.00;;;1.50;;
23250;SDS011;11794;49.730;10.088;2022-08-01T00:53:25;4.72;;;1.55;;
23250;SDS011;11794;49.730;10.088;2022-08-01T00:55:50;4.30;;;1.20;;
23250;SDS011;11794;49.730;10.088;2022-08-01T00:58:16;3.73;;;1.10;;
23250;SDS011;11794;49.730;10.088;2022-08-01T01:00:42;4.40;;;1.42;;
23250;SDS011;11794;49.730;10.088;2022-08-01T01:03:08;4.35;;;1.50;;
23250;SDS011;11794;49.730;10.088;2022-08-01T01:05:36;7.03;;;1.60;;
23250;SDS011;11794;49.730;10.088;2022-08-01T01:08:32;4.60;;;1.42;;
23250;SDS011;11794;49.730;10.088;2022-08-01T01:11:21;3.90;;;1.15;;
23250;SDS011;11794;49.730;10.088;2022-08-01T01:13:57;4.43;;;1.60;;
23250;SDS011;11794;49.730;10.088;2022-08-01T01:16:29;5.90;;;1.50;;
23250;SDS011;11794;49.730;10.088;2022-08-01T01:18:57;4.55;;;1.50;;
23250;SDS011;11794;49.730;10.088;2022-08-01T01:24:31;4.57;;;1.55;;
23250;SDS011;11794;49.730;10.088;2022-08-01T01:27:17;4.80;;;1.50;;
23250;SDS011;11794;49.730;10.088;2022-08-01T01:29:52;5.13;;;1.43;;
23250;SDS011;11794;49.730;10.088;2022-08-01T01:32:43;4.97;;;1.17;;
23250;SDS011;11794;49.730;10.088;2022-08-01T01:35:14;4.32;;;1.33;;
23250;SDS011;11794;49.730;10.088;2022-08-01T01:37:42;4.30;;;1.30;;
23250;SDS011;11794;49.730;10.088;2022-08-01T01:40:11;5.05;;;1.33;;
23250;SDS011;11794;49.730;10.088;2022-08-01T01:42:38;6.20;;;1.70;;
23250;SDS011;11794;49.730;10.088;2022-08-01T01:45:06;4.53;;;1.40;;
23250;SDS011;11794;49.730;10.088;2022-08-01T01:47:33;4.22;;;1.25;;
23250;SDS011;11794;49.730;10.088;2022-08-01T01:50:01;5.70;;;1.45;;
23250;SDS011;11794;49.730;10.088;2022-08-01T01:52:27;4.95;;;1.20;;
23250;SDS011;11794;49.730;10.088;2022-08-01T01:54:56;6.77;;;1.50;;
23250;SDS011;11794;49.730;10.088;2022-08-01T01:57:23;4.10;;;1.40;;
23250;SDS011;11794;49.730;10.088;2022-08-01T01:59:49;4.20;;;1.20;;
23250;SDS011;11794;49.730;10.088;2022-08-01T02:02:16;5.15;;;1.55;;
23250;SDS011;11794;49.730;10.088;2022-08-01T02:04:44;3.75;;;1.00;;
23250;SDS011;11794;49.730;10.088;2022-08-01T02:07:13;4.60;;;1.40;;
23250;SDS011;11794;49.730;10.088;2022-08-01T02:09:42;4.95;;;1.30;;
23250;SDS011;11794;49.730;10.088;2022-08-01T02:12:10;5.57;;;1.50;;
23250;SDS011;11794;49.730;10.088;2022-08-01T02:14:37;6.20;;;1.30;;
23250;SDS011;11794;49.730;10.088;2022-08-01T02:17:07;4.10;;;1.27;;
23250;SDS011;11794;49.730;10.088;2022-08-01T02:19:35;4.50;;;1.10;;
23250;SDS011;11794;49.730;10.088;2022-08-01T02:22:06;4.25;;;1.20;;
23250;SDS011;11794;49.730;10.088;2022-08-01T02:24:36;3.83;;;1.20;;
23250;SDS011;11794;49.730;10.088;2022-08-01T02:27:09;4.47;;;1.20;;
23250;SDS011;11794;49.730;10.088;2022-08-01T02:29:42;4.57;;;1.33;;
23250;SDS011;11794;49.730;10.088;2022-08-01T02:32:14;3.90;;;1.10;;
23250;SDS011;11794;49.730;10.088;2022-08-01T02:34:46;4.25;;;1.38;;
23250;SDS011;11794;49.730;10.088;2022-08-01T02:37:14;5.07;;;1.40;;
23250;SDS011;11794;49.730;10.088;2022-08-01T02:39:40;4.22;;;1.10;;
23250;SDS011;11794;49.730;10.088;2022-08-01T02:42:07;4.00;;;1.10;;
23250;SDS011;11794;49.730;10.088;2022-08-01T02:44:37;4.97;;;1.60;;
23250;SDS011;11794;49.730;10.088;2022-08-01T02:47:04;5.32;;;1.20;;
23250;SDS011;11794;49.730;10.088;2022-08-01T02:49:31;4.57;;;1.00;;
23250;SDS011;11794;49.730;10.088;2022-08-01T02:51:59;5.13;;;1.33;;
23250;SDS011;11794;49.730;10.088;2022-08-01T02:54:33;5.20;;;1.30;;
23250;SDS011;11794;49.730;10.088;2022-08-01T02:57:00;5.03;;;1.17;;
23250;SDS011;11794;49.730;10.088;2022-08-01T02:59:27;7.60;;;1.20;;
23250;SDS011;11794;49.730;10.088;2022-08-01T03:01:55;3.67;;;0.83;;
23250;SDS011;11794;49.730;10.088;2022-08-01T03:04:22;3.13;;;0.95;;
23250;SDS011;11794;49.730;10.088;2022-08-01T03:06:49;4.97;;;1.15;;
23250;SDS011;11794;49.730;10.088;2022-08-01T03:09:16;5.18;;;1.30;;
23250;SDS011;11794;49.730;10.088;2022-08-01T03:11:43;3.92;;;1.10;;
23250;SDS011;11794;49.730;10.088;2022-08-01T03:14:10;5.20;;;1.17;;
23250;SDS011;11794;49.730;10.088;2022-08-01T03:16:38;4.93;;;1.10;;
23250;SDS011;11794;49.730;10.088;2022-08-01T03:19:07;3.47;;;1.02;;
23250;SDS011;11794;49.730;10.088;2022-08-01T03:21:34;4.25;;;1.00;;
23250;SDS011;11794;49.730;10.088;2022-08-01T03:24:02;8.30;;;1.20;;
23250;SDS011;11794;49.730;10.088;2022-08-01T03:26:30;4.30;;;1.00;;
23250;SDS011;11794;49.730;10.088;2022-08-01T03:28:59;3.08;;;0.90;;
23250;SDS011;11794;49.730;10.088;2022-08-01T03:31:31;4.03;;;1.10;;
23250;SDS011;11794;49.730;10.088;2022-08-01T03:33:59;4.78;;;1.27;;
23250;SDS011;11794;49.730;10.088;2022-08-01T03:36:25;3.47;;;1.10;;
23250;SDS011;11794;49.730;10.088;2022-08-01T03:38:52;3.80;;;1.10;;
23250;SDS011;11794;49.730;10.088;2022-08-01T03:41:21;4.10;;;1.00;;
23250;SDS011;11794;49.730;10.088;2022-08-01T03:43:52;4.27;;;1.17;;
23250;SDS011;11794;49.730;10.088;2022-08-01T03:46:43;4.18;;;1.20;;
23250;SDS011;11794;49.730;10.088;2022-08-01T03:49:20;3.83;;;1.20;;
23250;SDS011;11794;49.730;10.088;2022-08-01T03:51:48;5.07;;;1.42;;
23250;SDS011;11794;49.730;10.088;2022-08-01T03:54:17;4.68;;;1.05;;
23250;SDS011;11794;49.730;10.088;2022-08-01T03:56:46;5.40;;;1.08;;
23250;SDS011;11794;49.730;10.088;2022-08-01T03:59:14;6.53;;;1.20;;
23250;SDS011;11794;49.730;10.088;2022-08-01T04:01:42;6.30;;;1.20;;
23250;SDS011;11794;49.730;10.088;2022-08-01T04:04:08;4.25;;;0.90;;
23250;SDS011;11794;49.730;10.088;2022-08-01T04:06:37;5.17;;;1.00;;
23250;SDS011;11794;49.730;10.088;2022-08-01T04:09:03;4.20;;;1.15;;
23250;SDS011;11794;49.730;10.088;2022-08-01T04:11:29;4.78;;;1.17;;
23250;SDS011;11794;49.730;10.088;2022-08-01T04:13:55;3.63;;;0.90;;
23250;SDS011;11794;49.730;10.088;2022-08-01T04:16:21;3.63;;;0.73;;
23250;SDS011;11794;49.730;10.088;2022-08-01T04:18:47;4.65;;;0.80;;
23250;SDS011;11794;49.730;10.088;2022-08-01T04:21:13;3.37;;;0.90;;
23250;SDS011;11794;49.730;10.088;2022-08-01T04:23:41;3.47;;;0.95;;
23250;SDS011;11794;49.730;10.088;2022-08-01T04:26:09;4.22;;;0.85;;
23250;SDS011;11794;49.730;10.088;2022-08-01T04:28:37;4.82;;;0.70;;
23250;SDS011;11794;49.730;10.088;2022-08-01T04:31:05;4.15;;;0.82;;
23250;SDS011;11794;49.730;10.088;2022-08-01T04:33:34;4.47;;;0.80;;
23250;SDS011;11794;49.730;10.088;2022-08-01T04:36:01;4.03;;;0.90;;
23250;SDS011;11794;49.730;10.088;2022-08-01T04:38:28;4.10;;;0.90;;
23250;SDS011;11794;49.730;10.088;2022-08-01T04:40:56;5.17;;;0.90;;
23250;SDS011;11794;49.730;10.088;2022-08-01T04:43:23;3.60;;;0.80;;
23250;SDS011;11794;49.730;10.088;2022-08-01T04:45:48;4.80;;;1.05;;
23250;SDS011;11794;49.730;10.088;2022-08-01T04:48:19;2.85;;;0.63;;
23250;SDS011;11794;49.730;10.088;2022-08-01T04:50:46;4.45;;;0.70;;
23250;SDS011;11794;49.730;10.088;2022-08-01T04:53:13;3.50;;;0.70;;
23250;SDS011;11794;49.730;10.088;2022-08-01T04:55:42;3.17;;;0.80;;
23250;SDS011;11794;49.730;10.088;2022-08-01T04:58:09;3.33;;;0.90;;
23250;SDS011;11794;49.730;10.088;2022-08-01T05:00:36;5.13;;;1.20;;
23250;SDS011;11794;49.730;10.088;2022-08-01T05:03:01;6.37;;;0.80;;
23250;SDS011;11794;49.730;10.088;2022-08-01T05:05:27;4.22;;;1.00;;
23250;SDS011;11794;49.730;10.088;2022-08-01T05:07:53;2.97;;;0.73;;
23250;SDS011;11794;49.730;10.088;2022-08-01T05:10:19;3.57;;;0.63;;
23250;SDS011;11794;49.730;10.088;2022-08-01T05:12:44;3.40;;;0.90;;
23250;SDS011;11794;49.730;10.088;2022-08-01T05:15:11;6.70;;;0.75;;
23250;SDS011;11794;49.730;10.088;2022-08-01T05:17:37;3.15;;;0.82;;
23250;SDS011;11794;49.730;10.088;2022-08-01T05:20:02;3.73;;;0.73;;
23250;SDS011;11794;49.730;10.088;2022-08-01T05:22:28;3.78;;;0.80;;
23250;SDS011;11794;49.730;10.088;2022-08-01T05:24:53;4.40;;;0.93;;
23250;SDS011;11794;49.730;10.088;2022-08-01T05:27:19;3.75;;;0.80;;
23250;SDS011;11794;49.730;10.088;2022-08-01T05:29:45;2.70;;;0.67;;
23250;SDS011;11794;49.730;10.088;2022-08-01T05:32:10;4.77;;;0.80;;
23250;SDS011;11794;49.730;10.088;2022-08-01T05:34:36;3.28;;;0.77;;
23250;SDS011;11794;49.730;10.088;2022-08-01T05:37:01;3.63;;;1.00;;
23250;SDS011;11794;49.730;10.088;2022-08-01T05:39:27;3.30;;;0.70;;
23250;SDS011;11794;49.730;10.088;2022-08-01T05:41:53;4.40;;;1.00;;
23250;SDS011;11794;49.730;10.088;2022-08-01T05:44:18;4.27;;;0.90;;
23250;SDS011;11794;49.730;10.088;2022-08-01T05:46:44;3.90;;;0.90;;
23250;SDS011;11794;49.730;10.088;2022-08-01T05:49:09;3.97;;;0.90;;
23250;SDS011;11794;49.730;10.088;2022-08-01T05:51:35;2.90;;;0.70;;
23250;SDS011;11794;49.730;10.088;2022-08-01T05:54:00;4.05;;;0.77;;
23250;SDS011;11794;49.730;10.088;2022-08-01T05:56:27;3.80;;;0.80;;
23250;SDS011;11794;49.730;10.088;2022-08-01T05:58:53;3.17;;;0.77;;
23250;SDS011;11794;49.730;10.088;2022-08-01T06:01:19;4.22;;;0.90;;
23250;SDS011;11794;49.730;10.088;2022-08-01T06:03:44;3.70;;;0.90;;
23250;SDS011;11794;49.730;10.088;2022-08-01T06:06:10;4.13;;;0.95;;
23250;SDS011;11794;49.730;10.088;2022-08-01T06:08:36;4.60;;;0.75;;
23250;SDS011;11794;49.730;10.088;2022-08-01T06:11:01;5.00;;;1.10;;
23250;SDS011;11794;49.730;10.088;2022-08-01T06:13:27;3.07;;;0.90;;
23250;SDS011;11794;49.730;10.088;2022-08-01T06:15:53;3.20;;;0.80;;
23250;SDS011;11794;49.730;10.088;2022-08-01T06:18:19;2.50;;;0.60;;
23250;SDS011;11794;49.730;10.088;2022-08-01T06:20:44;3.95;;;0.88;;
23250;SDS011;11794;49.730;10.088;2022-08-01T06:23:11;4.47;;;0.80;;
23250;SDS011;11794;49.730;10.088;2022-08-01T06:25:38;5.10;;;0.77;;
23250;SDS011;11794;49.730;10.088;2022-08-01T06:28:03;4.40;;;1.08;;
23250;SDS011;11794;49.730;10.088;2022-08-01T06:30:29;3.90;;;1.00;;
23250;SDS011;11794;49.730;10.088;2022-08-01T06:32:54;3.83;;;0.80;;
23250;SDS011;11794;49.730;10.088;2022-08-01T06:35:25;3.25;;;0.90;;
23250;SDS011;11794;49.730;10.088;2022-08-01T06:37:51;3.70;;;0.98;;
23250;SDS011;11794;49.730;10.088;2022-08-01T06:40:17;4.78;;;1.00;;
23250;SDS011;11794;49.730;10.088;2022-08-01T06:42:42;4.47;;;0.80;;
23250;SDS011;11794;49.730;10.088;2022-08-01T06:45:11;2.88;;;0.68;;
23250;SDS011;11794;49.730;10.088;2022-08-01T06:47:37;3.47;;;0.90;;
23250;SDS011;11794;49.730;10.088;2022-08-01T06:50:04;2.88;;;0.60;;
23250;SDS011;11794;49.730;10.088;2022-08-01T06:52:30;3.63;;;1.10;;
23250;SDS011;11794;49.730;10.088;2022-08-01T06:54:56;5.87;;;1.20;;
23250;SDS011;11794;49.730;10.088;2022-08-01T06:57:21;3.85;;;0.90;;
23250;SDS011;11794;49.730;10.088;2022-08-01T06:59:47;4.30;;;1.00;;
23250;SDS011;11794;49.730;10.088;2022-08-01T07:02:13;3.05;;;0.80;;
23250;SDS011;11794;49.730;10.088;2022-08-01T07:04:38;4.10;;;0.87;;
23250;SDS011;11794;49.730;10.088;2022-08-01T07:07:04;3.38;;;0.90;;
23250;SDS011;11794;49.730;10.088;2022-08-01T07:09:30;2.80;;;0.70;;
23250;SDS011;11794;49.730;10.088;2022-08-01T07:11:55;3.97;;;0.93;;
23250;SDS011;11794;49.730;10.088;2022-08-01T07:14:21;3.20;;;0.90;;
23250;SDS011;11794;49.730;10.088;2022-08-01T07:16:48;2.93;;;0.77;;
23250;SDS011;11794;49.730;10.088;2022-08-01T07:19:14;3.70;;;0.90;;
23250;SDS011;11794;49.730;10.088;2022-08-01T07:21:39;3.42;;;0.90;;
23250;SDS011;11794;49.730;10.088;2022-08-01T07:24:05;4.47;;;1.23;;
23250;SDS011;11794;49.730;10.088;2022-08-01T07:26:32;3.95;;;1.05;;
23250;SDS011;11794;49.730;10.088;2022-08-01T07:28:58;3.10;;;0.70;;
23250;SDS011;11794;49.730;10.088;2022-08-01T07:31:23;3.60;;;1.00;;
23250;SDS011;11794;49.730;10.088;2022-08-01T07:33:49;3.53;;;1.00;;
23250;SDS011;11794;49.730;10.088;2022-08-01T07:36:15;3.20;;;0.80;;
23250;SDS011;11794;49.730;10.088;2022-08-01T07:38:41;3.42;;;0.80;;
23250;SDS011;11794;49.730;10.088;2022-08-01T07:41:07;2.70;;;0.60;;
23250;SDS011;11794;49.730;10.088;2022-08-01T07:43:32;2.73;;;0.67;;
23250;SDS011;11794;49.730;10.088;2022-08-01T07:46:00;3.63;;;1.00;;
23250;SDS011;11794;49.730;10.088;2022-08-01T07:48:26;6.88;;;2.00;;
23250;SDS011;11794;49.730;10.088;2022-08-01T07:50:52;10.93;;;2.30;;
23250;SDS011;11794;49.730;10.088;2022-08-01T07:53:18;5.65;;;1.23;;
23250;SDS011;11794;49.730;10.088;2022-08-01T07:55:43;3.43;;;0.97;;
23250;SDS011;11794;49.730;10.088;2022-08-01T07:58:09;7.70;;;1.98;;
23250;SDS011;11794;49.730;10.088;2022-08-01T08:00:34;5.03;;;1.37;;
23250;SDS011;11794;49.730;10.088;2022-08-01T08:03:00;6.73;;;1.33;;
23250;SDS011;11794;49.730;10.088;2022-08-01T08:05:26;3.37;;;1.00;;
23250;SDS011;11794;49.730;10.088;2022-08-01T08:07:52;4.22;;;1.23;;
23250;SDS011;11794;49.730;10.088;2022-08-01T08:10:17;4.27;;;1.00;;
23250;SDS011;11794;49.730;10.088;2022-08-01T08:12:43;4.50;;;1.37;;
23250;SDS011;11794;49.730;10.088;2022-08-01T08:15:08;5.40;;;1.10;;
23250;SDS011;11794;49.730;10.088;2022-08-01T08:17:34;3.78;;;1.10;;
23250;SDS011;11794;49.730;10.088;2022-08-01T08:20:00;4.00;;;1.20;;
23250;SDS011;11794;49.730;10.088;2022-08-01T08:22:27;4.23;;;1.30;;
23250;SDS011;11794;49.730;10.088;2022-08-01T08:24:52;3.72;;;1.00;;
23250;SDS011;11794;49.730;10.088;2022-08-01T08:27:18;4.87;;;1.20;;
23250;SDS011;11794;49.730;10.088;2022-08-01T08:29:43;3.85;;;1.20;;
23250;SDS011;11794;49.730;10.088;2022-08-01T08:32:09;4.10;;;1.20;;
23250;SDS011;11794;49.730;10.088;2022-08-01T08:34:35;4.37;;;1.30;;
23250;SDS011;11794;49.730;10.088;2022-08-01T08:37:00;3.73;;;1.27;;
23250;SDS011;11794;49.730;10.088;2022-08-01T08:39:26;4.90;;;1.10;;
23250;SDS011;11794;49.730;10.088;2022-08-01T08:41:54;4.10;;;1.17;;
23250;SDS011;11794;49.730;10.088;2022-08-01T08:44:22;3.97;;;1.20;;
23250;SDS011;11794;49.730;10.088;2022-08-01T08:46:48;4.18;;;1.20;;
23250;SDS011;11794;49.730;10.088;2022-08-01T08:49:17;4.82;;;1.40;;
23250;SDS011;11794;49.730;10.088;2022-08-01T08:51:47;3.63;;;1.20;;
23250;SDS011;11794;49.730;10.088;2022-08-01T08:54:14;5.27;;;1.30;;
23250;SDS011;11794;49.730;10.088;2022-08-01T08:56:40;3.88;;;1.30;;
23250;SDS011;11794;49.730;10.088;2022-08-01T08:59:07;4.15;;;1.10;;
23250;SDS011;11794;49.730;10.088;2022-08-01T09:01:33;3.88;;;1.02;;
23250;SDS011;11794;49.730;10.088;2022-08-01T09:04:00;3.45;;;1.20;;
23250;SDS011;11794;49.730;10.088;2022-08-01T09:06:27;3.33;;;1.00;;
23250;SDS011;11794;49.730;10.088;2022-08-01T09:08:53;5.60;;;1.30;;
23250;SDS011;11794;49.730;10.088;2022-08-01T09:11:19;3.53;;;1.10;;
23250;SDS011;11794;49.730;10.088;2022-08-01T09:14:00;4.15;;;1.30;;
23250;SDS011;11794;49.730;10.088;2022-08-01T09:16:28;3.90;;;1.30;;
23250;SDS011;11794;49.730;10.088;2022-08-01T09:18:54;4.30;;;1.13;;
23250;SDS011;11794;49.730;10.088;2022-08-01T09:21:32;4.28;;;1.27;;
23250;SDS011;11794;49.730;10.088;2022-08-01T09:23:57;4.50;;;1.20;;
23250;SDS011;11794;49.730;10.088;2022-08-01T09:26:29;4.17;;;1.30;;
23250;SDS011;11794;49.730;10.088;2022-08-01T09:28:56;3.60;;;1.10;;
23250;SDS011;11794;49.730;10.088;2022-08-01T09:31:22;2.63;;;0.73;;
23250;SDS011;11794;49.730;10.088;2022-08-01T09:33:53;4.15;;;1.08;;
23250;SDS011;11794;49.730;10.088;2022-08-01T09:39:19;3.28;;;0.88;;
23250;SDS011;11794;49.730;10.088;2022-08-01T09:41:46;3.13;;;0.98;;
23250;SDS011;11794;49.730;10.088;2022-08-01T09:44:13;4.03;;;1.33;;
23250;SDS011;11794;49.730;10.088;2022-08-01T09:46:52;4.03;;;1.30;;
23250;SDS011;11794;49.730;10.088;2022-08-01T09:49:29;4.00;;;1.43;;
23250;SDS011;11794;49.730;10.088;2022-08-01T09:51:56;3.63;;;1.20;;
23250;SDS011;11794;49.730;10.088;2022-08-01T09:54:27;4.82;;;1.40;;
23250;SDS011;11794;49.730;10.088;2022-08-01T09:57:11;3.72;;;1.27;;
23250;SDS011;11794;49.730;10.088;2022-08-01T09:59:39;4.75;;;1.30;;
23250;SDS011;11794;49.730;10.088;2022-08-01T10:02:07;3.28;;;1.15;;
23250;SDS011;11794;49.730;10.088;2022-08-01T10:04:35;3.33;;;1.27;;
23250;SDS011;11794;49.730;10.088;2022-08-01T10:07:06;4.30;;;1.30;;
23250;SDS011;11794;49.730;10.088;2022-08-01T10:09:34;3.00;;;1.17;;
23250;SDS011;11794;49.730;10.088;2022-08-01T10:12:00;3.67;;;1.27;;
23250;SDS011;11794;49.730;10.088;2022-08-01T10:14:27;3.30;;;1.08;;
23250;SDS011;11794;49.730;10.088;2022-08-01T10:16:54;4.00;;;1.20;;
23250;SDS011;11794;49.730;10.088;2022-08-01T10:19:22;5.55;;;1.40;;
23250;SDS011;11794;49.730;10.088;2022-08-01T10:21:49;5.00;;;1.42;;
23250;SDS011;11794;49.730;10.088;2022-08-01T10:24:17;3.72;;;1.25;;
23250;SDS011;11794;49.730;10.088;2022-08-01T10:26:46;3.35;;;1.40;;
23250;SDS011;11794;49.730;10.088;2022-08-01T10:29:14;4.50;;;1.42;;
23250;SDS011;11794;49.730;10.088;2022-08-01T10:31:43;3.30;;;1.30;;
23250;SDS011;11794;49.730;10.088;2022-08-01T10:34:09;3.40;;;1.07;;
23250;SDS011;11794;49.730;10.088;2022-08-01T10:36:36;3.03;;;1.00;;
23250;SDS011;11794;49.730;10.088;2022-08-01T10:39:04;3.60;;;1.05;;
23250;SDS011;11794;49.730;10.088;2022-08-01T10:41:32;3.15;;;1.15;;
23250;SDS011;11794;49.730;10.088;2022-08-01T10:43:58;3.80;;;1.20;;
23250;SDS011;11794;49.730;10.088;2022-08-01T10:46:25;3.20;;;1.10;;
23250;SDS011;11794;49.730;10.088;2022-08-01T10:48:56;3.17;;;1.25;;
23250;SDS011;11794;49.730;10.088;2022-08-01T10:51:27;3.63;;;1.35;;
23250;SDS011;11794;49.730;10.088;2022-08-01T10:53:54;2.85;;;1.10;;
23250;SDS011;11794;49.730;10.088;2022-08-01T10:56:20;3.50;;;1.03;;
23250;SDS011;11794;49.730;10.088;2022-08-01T10:58:47;3.83;;;1.00;;
23250;SDS011;11794;49.730;10.088;2022-08-01T11:03:39;3.17;;;1.20;;
23250;SDS011;11794;49.730;10.088;2022-08-01T11:06:06;2.77;;;1.00;;
23250;SDS011;11794;49.730;10.088;2022-08-01T11:08:32;2.95;;;1.00;;
23250;SDS011;11794;49.730;10.088;2022-08-01T11:11:02;3.05;;;1.05;;
23250;SDS011;11794;49.730;10.088;2022-08-01T11:16:33;3.30;;;1.10;;
23250;SDS011;11794;49.730;10.088;2022-08-01T11:19:00;2.85;;;0.80;;
23250;SDS011;11794;49.730;10.088;2022-08-01T11:27:20;3.83;;;1.23;;
23250;SDS011;11794;49.730;10.088;2022-08-01T11:35:30;3.75;;;1.50;;
23250;SDS011;11794;49.730;10.088;2022-08-01T11:37:56;2.73;;;1.03;;
23250;SDS011;11794;49.730;10.088;2022-08-01T11:40:42;3.22;;;1.30;;
23250;SDS011;11794;49.730;10.088;2022-08-01T11:45:51;3.53;;;1.40;;
23250;SDS011;11794;49.730;10.088;2022-08-01T11:48:20;3.47;;;1.48;;
23250;SDS011;11794;49.730;10.088;2022-08-01T11:50:47;3.90;;;1.40;;
23250;SDS011;11794;49.730;10.088;2022-08-01T11:53:16;3.58;;;1.33;;
23250;SDS011;11794;49.730;10.088;2022-08-01T11:55:47;3.30;;;1.20;;
23250;SDS011;11794;49.730;10.088;2022-08-01T11:58:15;3.17;;;1.20;;
23250;SDS011;11794;49.730;10.088;2022-08-01T12:00:52;3.10;;;1.10;;
23250;SDS011;11794;49.730;10.088;2022-08-01T12:03:25;2.90;;;1.10;;
23250;SDS011;11794;49.730;10.088;2022-08-01T12:05:56;4.03;;;1.20;;
23250;SDS011;11794;49.730;10.088;2022-08-01T12:08:26;2.60;;;1.00;;
23250;SDS011;11794;49.730;10.088;2022-08-01T12:10:51;3.05;;;1.02;;
23250;SDS011;11794;49.730;10.088;2022-08-01T12:13:17;3.38;;;1.20;;
23250;SDS011;11794;49.730;10.088;2022-08-01T12:15:43;4.03;;;1.30;;
23250;SDS011;11794;49.730;10.088;2022-08-01T12:18:09;2.97;;;1.20;;
23250;SDS011;11794;49.730;10.088;2022-08-01T12:20:38;3.38;;;1.23;;
23250;SDS011;11794;49.730;10.088;2022-08-01T12:23:06;3.57;;;1.40;;
23250;SDS011;11794;49.730;10.088;2022-08-01T12:25:34;3.60;;;1.10;;
23250;SDS011;11794;49.730;10.088;2022-08-01T12:28:01;2.70;;;1.05;;
23250;SDS011;11794;49.730;10.088;2022-08-01T12:30:29;3.28;;;1.20;;
23250;SDS011;11794;49.730;10.088;2022-08-01T12:32:56;2.60;;;0.90;;
23250;SDS011;11794;49.730;10.088;2022-08-01T12:35:23;4.10;;;1.30;;
23250;SDS011;11794;49.730;10.088;2022-08-01T12:37:52;3.30;;;1.20;;
23250;SDS011;11794;49.730;10.088;2022-08-01T12:40:23;3.13;;;1.13;;
23250;SDS011;11794;49.730;10.088;2022-08-01T12:42:53;2.60;;;0.88;;
23250;SDS011;11794;49.730;10.088;2022-08-01T12:45:27;3.37;;;1.30;;
23250;SDS011;11794;49.730;10.088;2022-08-01T12:48:00;3.30;;;1.30;;
23250;SDS011;11794;49.730;10.088;2022-08-01T12:50:29;3.42;;;1.30;;
23250;SDS011;11794;49.730;10.088;2022-08-01T12:52:55;2.85;;;1.00;;
23250;SDS011;11794;49.730;10.088;2022-08-01T12:55:25;2.90;;;1.02;;
23250;SDS011;11794;49.730;10.088;2022-08-01T12:58:05;3.00;;;0.95;;
23250;SDS011;11794;49.730;10.088;2022-08-01T13:00:35;3.05;;;1.00;;
23250;SDS011;11794;49.730;10.088;2022-08-01T13:05:53;4.75;;;1.10;;
23250;SDS011;11794;49.730;10.088;2022-08-01T13:08:24;2.63;;;0.63;;
23250;SDS011;11794;49.730;10.088;2022-08-01T13:11:00;2.80;;;0.83;;
23250;SDS011;11794;49.730;10.088;2022-08-01T13:13:37;2.53;;;0.70;;
23250;SDS011;11794;49.730;10.088;2022-08-01T13:16:04;3.17;;;1.10;;
23250;SDS011;11794;49.730;10.088;2022-08-01T13:18:31;4.40;;;1.00;;
23250;SDS011;11794;49.730;10.088;2022-08-01T13:23:37;3.50;;;1.48;;
23250;SDS011;11794;49.730;10.088;2022-08-01T13:26:04;3.05;;;1.10;;
23250;SDS011;11794;49.730;10.088;2022-08-01T13:28:30;2.40;;;0.88;;
23250;SDS011;11794;49.730;10.088;2022-08-01T13:31:00;3.07;;;1.00;;
23250;SDS011;11794;49.730;10.088;2022-08-01T13:33:40;4.30;;;1.30;;
23250;SDS011;11794;49.730;10.088;2022-08-01T13:36:10;3.53;;;1.40;;
23250;SDS011;11794;49.730;10.088;2022-08-01T13:38:37;3.33;;;1.08;;
23250;SDS011;11794;49.730;10.088;2022-08-01T13:41:22;3.35;;;1.42;;
23250;SDS011;11794;49.730;10.088;2022-08-01T13:43:47;3.50;;;1.52;;
23250;SDS011;11794;49.730;10.088;2022-08-01T13:46:13;3.30;;;1.13;;
23250;SDS011;11794;49.730;10.088;2022-08-01T13:48:39;3.60;;;1.63;;
23250;SDS011;11794;49.730;10.088;2022-08-01T13:51:04;3.47;;;1.45;;
23250;SDS011;11794;49.730;10.088;2022-08-01T13:53:30;3.87;;;1.83;;
23250;SDS011;11794;49.730;10.088;2022-08-01T13:55:56;3.80;;;1.80;;
23250;SDS011;11794;49.730;10.088;2022-08-01T13:58:22;3.28;;;1.50;;
23250;SDS011;11794;49.730;10.088;2022-08-01T14:00:47;3.30;;;1.40;;
23250;SDS011;11794;49.730;10.088;2022-08-01T14:03:13;2.88;;;1.00;;
23250;SDS011;11794;49.730;10.088;2022-08-01T14:05:39;3.70;;;1.50;;
23250;SDS011;11794;49.730;10.088;2022-08-01T14:08:05;4.00;;;1.60;;
23250;SDS011;11794;49.730;10.088;2022-08-01T14:10:30;4.13;;;1.50;;
23250;SDS011;11794;49.730;10.088;2022-08-01T14:12:56;3.75;;;1.55;;
23250;SDS011;11794;49.730;10.088;2022-08-01T14:15:23;4.00;;;1.53;;
23250;SDS011;11794;49.730;10.088;2022-08-01T14:17:49;3.75;;;1.30;;
23250;SDS011;11794;49.730;10.088;2022-08-01T14:20:15;3.50;;;1.15;;
23250;SDS011;11794;49.730;10.088;2022-08-01T14:22:44;4.13;;;1.20;;
23250;SDS011;11794;49.730;10.088;2022-08-01T14:25:12;4.00;;;1.27;;
23250;SDS011;11794;49.730;10.088;2022-08-01T14:27:38;3.63;;;1.27;;
23250;SDS011;11794;49.730;10.088;2022-08-01T14:30:06;3.47;;;1.30;;
23250;SDS011;11794;49.730;10.088;2022-08-01T14:32:32;4.03;;;1.40;;
23250;SDS011;11794;49.730;10.088;2022-08-01T14:34:59;3.67;;;1.40;;
23250;SDS011;11794;49.730;10.088;2022-08-01T14:37:27;3.15;;;1.13;;
23250;SDS011;11794;49.730;10.088;2022-08-01T14:39:54;3.45;;;1.40;;
23250;SDS011;11794;49.730;10.088;2022-08-01T14:42:20;3.93;;;1.37;;
23250;SDS011;11794;49.730;10.088;2022-08-01T14:44:45;6.23;;;1.53;;
23250;SDS011;11794;49.730;10.088;2022-08-01T14:47:11;4.97;;;1.67;;
23250;SDS011;11794;49.730;10.088;2022-08-01T14:49:36;3.65;;;1.40;;
23250;SDS011;11794;49.730;10.088;2022-08-01T14:52:02;4.40;;;1.60;;
23250;SDS011;11794;49.730;10.088;2022-08-01T14:54:27;3.83;;;1.33;;
23250;SDS011;11794;49.730;10.088;2022-08-01T14:56:53;3.80;;;1.30;;
23250;SDS011;11794;49.730;10.088;2022-08-01T14:59:19;3.43;;;1.20;;
23250;SDS011;11794;49.730;10.088;2022-08-01T15:01:45;3.38;;;1.20;;
23250;SDS011;11794;49.730;10.088;2022-08-01T15:04:10;3.60;;;1.30;;
23250;SDS011;11794;49.730;10.088;2022-08-01T15:06:36;4.20;;;1.60;;
23250;SDS011;11794;49.730;10.088;2022-08-01T15:09:02;4.07;;;1.55;;